createdAt,value
2024-02-04T00:00:15.942Z,102326.41
2024-02-04T00:02:42.420Z,102335.53
2024-02-04T00:05:08.892Z,102332.00
2024-02-04T00:07:35.424Z,102324.72
2024-02-04T00:10:01.971Z,102327.25
2024-02-04T00:12:28.492Z,102334.50
2024-02-04T00:14:54.995Z,102330.97
2024-02-04T00:17:21.451Z,102330.13
2024-02-04T00:19:47.981Z,102330.97
2024-02-04T00:22:14.622Z,102330.13
2024-02-04T00:24:41.190Z,102327.25
2024-02-04T00:27:07.682Z,102322.03
2024-02-04T00:29:34.607Z,102324.72
2024-02-04T00:32:01.221Z,102322.66
2024-02-04T00:34:27.913Z,102329.09
2024-02-04T00:36:54.417Z,102322.03
2024-02-04T00:39:20.956Z,102320.34
2024-02-04T00:41:47.455Z,102331.16
2024-02-04T00:44:14.033Z,102327.63
2024-02-04T00:46:40.519Z,102320.53
2024-02-04T00:49:07.490Z,102324.06
2024-02-04T00:51:34.439Z,102315.13
2024-02-04T00:54:00.872Z,102309.72
2024-02-04T00:56:27.334Z,102312.63
2024-02-04T00:58:53.734Z,102306.38
2024-02-04T01:01:23.527Z,102305.53
2024-02-04T01:03:50.302Z,102309.28
2024-02-04T01:06:17.195Z,102308.63
2024-02-04T01:08:43.783Z,102306.94
2024-02-04T01:11:10.334Z,102309.66
2024-02-04T01:13:37.151Z,102307.97
2024-02-04T01:16:03.843Z,102303.59
2024-02-04T01:18:32.657Z,102311.03
2024-02-04T01:21:01.454Z,102297.50
2024-02-04T01:23:27.914Z,102290.44
2024-02-04T01:25:54.780Z,102293.13
2024-02-04T01:28:21.283Z,102294.16
2024-02-04T01:30:48.465Z,102300.41
2024-02-04T01:33:15.089Z,102304.97
2024-02-04T01:35:41.680Z,102310.38
2024-02-04T01:38:08.124Z,102303.28
2024-02-04T01:40:34.570Z,102310.38
2024-02-04T01:43:01.039Z,102310.75
2024-02-04T01:45:27.686Z,102313.63
2024-02-04T01:47:55.341Z,102312.81
2024-02-04T01:50:22.963Z,102305.72
2024-02-04T01:52:50.585Z,102296.97
2024-02-04T01:55:17.168Z,102306.09
2024-02-04T01:57:43.917Z,102297.34
2024-02-04T02:00:11.664Z,102308.16
2024-02-04T02:02:41.567Z,102299.41
2024-02-04T02:05:10.118Z,102311.03
2024-02-04T02:07:36.802Z,102313.91
2024-02-04T02:10:06.665Z,102310.56
2024-02-04T02:12:39.513Z,102327.78
2024-02-04T02:15:15.427Z,102324.25
2024-02-04T02:17:50.943Z,102325.47
2024-02-04T02:20:28.201Z,102328.34
2024-02-04T02:23:15.282Z,102323.97
2024-02-04T02:25:44.135Z,102322.13
2024-02-04T02:28:10.988Z,102310.66
2024-02-04T02:30:37.606Z,102300.22
2024-02-04T02:33:06.461Z,102287.75
2024-02-04T02:35:33.131Z,102304.94
2024-02-04T02:38:34.608Z,102294.69
2024-02-04T02:41:05.491Z,102295.25
2024-02-04T02:43:34.394Z,102291.91
2024-02-04T02:46:02.076Z,102291.91
2024-02-04T02:48:29.235Z,102297.69
2024-02-04T02:50:55.868Z,102296.00
2024-02-04T02:53:22.321Z,102293.47
2024-02-04T02:55:48.759Z,102309.84
2024-02-04T02:58:15.593Z,102299.06
2024-02-04T03:00:42.227Z,102295.69
2024-02-04T03:03:08.879Z,102301.75
2024-02-04T03:05:35.964Z,102290.31
2024-02-04T03:08:02.457Z,102287.59
2024-02-04T03:10:29.030Z,102287.59
2024-02-04T03:12:55.491Z,102292.16
2024-02-04T03:15:22.197Z,102290.31
2024-02-04T03:17:48.882Z,102290.94
2024-02-04T03:20:15.518Z,102295.50
2024-02-04T03:22:42.158Z,102305.47
2024-02-04T03:25:08.846Z,102294.69
2024-02-04T03:27:35.582Z,102301.94
2024-02-04T03:30:02.599Z,102292.34
2024-02-04T03:32:34.563Z,102302.97
2024-02-04T03:35:02.387Z,102294.22
2024-02-04T03:37:29.307Z,102298.59
2024-02-04T03:39:55.880Z,102291.31
2024-02-04T03:42:23.396Z,102287.13
2024-02-04T03:44:49.986Z,102288.34
2024-02-04T03:47:16.523Z,102287.88
2024-02-04T03:49:43.056Z,102286.53
2024-02-04T03:52:09.635Z,102299.38
2024-02-04T03:54:36.176Z,102303.31
2024-02-04T03:57:02.767Z,102308.88
2024-02-04T03:59:29.292Z,102316.16
2024-02-04T04:01:56.156Z,102309.25
2024-02-04T04:04:22.851Z,102308.41
2024-02-04T04:06:49.860Z,102308.78
2024-02-04T04:09:16.519Z,102294.25
2024-02-04T04:11:43.008Z,102307.91
2024-02-04T04:14:09.509Z,102293.75
2024-02-04T04:16:36.012Z,102297.47
2024-02-04T04:19:02.657Z,102286.88
2024-02-04T04:21:29.445Z,102284.38
2024-02-04T04:23:55.927Z,102277.09
2024-02-04T04:26:22.425Z,102277.47
2024-02-04T04:28:48.880Z,102279.16
2024-02-04T04:31:15.979Z,102288.25
2024-02-04T04:33:42.575Z,102289.28
2024-02-04T04:36:09.549Z,102281.19
2024-02-04T04:38:36.046Z,102278.50
2024-02-04T04:41:02.493Z,102277.84
2024-02-04T04:43:29.091Z,102276.81
2024-02-04T04:45:56.244Z,102277.84
2024-02-04T04:48:22.813Z,102262.50
2024-02-04T04:50:49.410Z,102273.28
2024-02-04T04:53:15.912Z,102263.31
2024-02-04T04:55:42.504Z,102258.94
2024-02-04T04:58:09.059Z,102254.56
2024-02-04T05:00:36.127Z,102243.78
2024-02-04T05:03:02.706Z,102238.38
2024-02-04T05:05:29.187Z,102231.31
2024-02-04T05:07:55.734Z,102242.09
2024-02-04T05:10:22.290Z,102244.81
2024-02-04T05:12:49.084Z,102243.13
2024-02-04T05:15:15.649Z,102242.44
2024-02-04T05:17:42.251Z,102245.81
2024-02-04T05:20:09.174Z,102244.13
2024-02-04T05:22:35.696Z,102246.16
2024-02-04T05:25:02.523Z,102248.69
2024-02-04T05:27:29.158Z,102251.56
2024-02-04T05:29:55.852Z,102246.31
2024-02-04T05:32:22.884Z,102245.47
2024-02-04T05:34:49.465Z,102257.09
2024-02-04T05:37:16.099Z,102242.59
2024-02-04T05:39:42.620Z,102245.47
2024-02-04T05:42:09.095Z,102234.50
2024-02-04T05:44:35.555Z,102231.81
2024-02-04T05:47:02.029Z,102217.47
2024-02-04T05:49:28.704Z,102220.03
2024-02-04T05:51:55.302Z,102231.66
2024-02-04T05:54:21.835Z,102227.94
2024-02-04T05:56:48.434Z,102235.03
2024-02-04T05:59:16.891Z,102230.47
2024-02-04T06:01:44.030Z,102229.63
2024-02-04T06:04:10.622Z,102230.28
2024-02-04T06:06:37.283Z,102226.75
2024-02-04T06:09:03.983Z,102211.41
2024-02-04T06:11:30.428Z,102203.66
2024-02-04T06:13:56.917Z,102200.94
2024-02-04T06:16:23.393Z,102202.66
2024-02-04T06:18:49.945Z,102199.94
2024-02-04T06:21:16.549Z,102201.97
2024-02-04T06:23:43.054Z,102190.16
2024-02-04T06:26:09.611Z,102199.28
2024-02-04T06:28:36.489Z,102193.88
2024-02-04T06:31:03.513Z,102186.81
2024-02-04T06:33:30.124Z,102184.25
2024-02-04T06:35:57.088Z,102180.53
2024-02-04T06:38:23.573Z,102184.25
2024-02-04T06:40:50.127Z,102179.03
2024-02-04T06:43:16.572Z,102189.50
2024-02-04T06:45:43.157Z,102190.16
2024-02-04T06:48:10.904Z,102187.31
2024-02-04T06:50:38.403Z,102185.25
2024-02-04T06:53:05.073Z,102179.66
2024-02-04T06:55:31.796Z,102181.16
2024-02-04T06:57:58.346Z,102192.41
2024-02-04T07:00:24.909Z,102198.47
2024-02-04T07:02:51.502Z,102193.06
2024-02-04T07:05:18.116Z,102193.72
2024-02-04T07:07:45.328Z,102174.47
2024-02-04T07:10:12.075Z,102188.63
2024-02-04T07:12:38.987Z,102182.19
2024-02-04T07:15:05.820Z,102169.34
2024-02-04T07:17:32.438Z,102168.31
2024-02-04T07:19:59.189Z,102170.84
2024-02-04T07:22:25.737Z,102169.81
2024-02-04T07:24:52.250Z,102168.97
2024-02-04T07:27:18.744Z,102161.16
2024-02-04T07:29:45.560Z,102160.41
2024-02-04T07:32:12.016Z,102163.84
2024-02-04T07:34:38.614Z,102166.66
2024-02-04T07:37:05.171Z,102163.84
2024-02-04T07:39:32.577Z,102165.81
2024-02-04T07:42:02.647Z,102177.91
2024-02-04T07:44:30.161Z,102173.97
2024-02-04T07:46:56.892Z,102175.66
2024-02-04T07:49:23.545Z,102182.72
2024-02-04T07:51:50.084Z,102182.19
2024-02-04T07:54:16.830Z,102174.72
2024-02-04T07:56:43.313Z,102189.72
2024-02-04T07:59:09.815Z,102177.03
2024-02-04T08:01:37.897Z,102173.31
2024-02-04T08:04:06.679Z,102166.88
2024-02-04T08:06:35.722Z,102165.84
2024-02-04T08:09:02.475Z,102164.00
2024-02-04T08:11:29.011Z,102166.94
2024-02-04T08:13:55.478Z,102175.53
2024-02-04T08:16:22.140Z,102167.78
2024-02-04T08:18:48.684Z,102174.06
2024-02-04T08:21:15.196Z,102171.16
2024-02-04T08:23:41.817Z,102172.84
2024-02-04T08:26:08.550Z,102177.41
2024-02-04T08:28:35.505Z,102158.28
2024-02-04T08:31:02.012Z,102165.38
2024-02-04T08:33:28.693Z,102163.13
2024-02-04T08:35:55.298Z,102162.09
2024-02-04T08:38:21.806Z,102157.91
2024-02-04T08:40:48.263Z,102160.41
2024-02-04T08:43:14.730Z,102155.84
2024-02-04T08:45:41.694Z,102149.41
2024-02-04T08:48:08.335Z,102146.06
2024-02-04T08:50:34.847Z,102150.63
2024-02-04T08:53:01.329Z,102140.84
2024-02-04T08:55:27.860Z,102147.09
2024-02-04T08:57:54.419Z,102140.03
2024-02-04T09:00:21.517Z,102132.94
2024-02-04T09:02:48.081Z,102132.94
2024-02-04T09:05:16.492Z,102136.94
2024-02-04T09:07:43.378Z,102134.22
2024-02-04T09:10:10.280Z,102135.91
2024-02-04T09:12:36.862Z,102134.22
2024-02-04T09:15:05.976Z,102127.97
2024-02-04T09:17:34.368Z,102131.78
2024-02-04T09:20:01.247Z,102127.88
2024-02-04T09:22:27.890Z,102134.38
2024-02-04T09:24:54.874Z,102141.06
2024-02-04T09:27:21.472Z,102142.19
2024-02-04T09:29:47.936Z,102150.53
2024-02-04T09:32:17.586Z,102153.69
2024-02-04T09:34:45.657Z,102165.13
2024-02-04T09:37:12.270Z,102162.03
2024-02-04T09:39:38.900Z,102162.53
2024-02-04T09:42:05.722Z,102156.72
2024-02-04T09:44:33.506Z,102150.91
2024-02-04T09:47:01.947Z,102144.28
2024-02-04T09:49:29.271Z,102158.25
2024-02-04T09:52:00.148Z,102154.34
2024-02-04T09:54:28.484Z,102151.22
2024-02-04T09:56:55.511Z,102159.78
2024-02-04T09:59:22.023Z,102147.94
2024-02-04T10:01:48.905Z,102155.84
2024-02-04T10:04:16.039Z,102136.72
2024-02-04T10:06:42.843Z,102147.97
2024-02-04T10:09:09.712Z,102148.44
2024-02-04T10:11:36.344Z,102153.66
2024-02-04T10:14:02.873Z,102159.06
2024-02-04T10:16:29.750Z,102152.63
2024-02-04T10:18:57.672Z,102157.00
2024-02-04T10:21:26.198Z,102158.69
2024-02-04T10:23:52.825Z,102152.44
2024-02-04T10:26:21.512Z,102154.94
2024-02-04T10:28:49.567Z,102159.31
2024-02-04T10:31:16.811Z,102159.97
2024-02-04T10:33:43.587Z,102157.91
2024-02-04T10:36:10.484Z,102151.66
2024-02-04T10:38:37.066Z,102172.09
2024-02-04T10:41:03.730Z,102158.19
2024-02-04T10:43:35.338Z,102165.06
2024-02-04T10:46:11.329Z,102163.84
2024-02-04T10:48:43.856Z,102164.66
2024-02-04T10:51:15.712Z,102168.84
2024-02-04T10:53:45.002Z,102163.03
2024-02-04T10:56:34.772Z,102150.16
2024-02-04T10:59:04.053Z,102156.84
2024-02-04T11:01:31.517Z,102155.41
2024-02-04T11:03:58.514Z,102153.34
2024-02-04T11:06:26.197Z,102157.72
2024-02-04T11:08:56.262Z,102167.09
2024-02-04T11:11:25.340Z,102160.28
2024-02-04T11:13:54.523Z,102167.38
2024-02-04T11:16:59.468Z,102164.41
2024-02-04T11:19:35.093Z,102161.47
2024-02-04T11:22:13.428Z,102161.03
2024-02-04T11:25:10.535Z,102164.69
2024-02-04T11:27:37.278Z,102164.91
2024-02-04T11:30:05.675Z,102162.78
2024-02-04T11:32:32.276Z,102157.78
2024-02-04T11:35:02.665Z,102143.19
2024-02-04T11:37:30.164Z,102140.00
2024-02-04T11:39:58.711Z,102138.69
2024-02-04T11:42:26.273Z,102129.31
2024-02-04T11:45:08.495Z,102120.16
2024-02-04T11:47:36.616Z,102128.72
2024-02-04T11:50:04.557Z,102110.78
2024-02-04T11:52:31.500Z,102124.53
2024-02-04T11:54:58.687Z,102115.38
2024-02-04T11:57:25.399Z,102122.66
2024-02-04T11:59:55.844Z,102118.47
2024-02-04T12:02:22.367Z,102109.13
2024-02-04T12:04:49.468Z,102111.19
2024-02-04T12:07:16.343Z,102117.44
2024-02-04T12:09:43.414Z,102108.28
2024-02-04T12:12:10.096Z,102104.13
2024-02-04T12:14:37.206Z,102101.41
2024-02-04T12:17:13.188Z,102083.50
2024-02-04T12:19:44.214Z,102091.41
2024-02-04T12:22:12.288Z,102096.84
2024-02-04T12:24:40.069Z,102086.00
2024-02-04T12:27:07.022Z,102082.91
2024-02-04T12:29:34.089Z,102096.44
2024-02-04T12:32:04.840Z,102079.16
2024-02-04T12:34:33.393Z,102077.09
2024-02-04T12:37:01.580Z,102072.97
2024-02-04T12:39:29.514Z,102075.09
2024-02-04T12:41:56.121Z,102082.63
2024-02-04T12:44:22.901Z,102093.44
2024-02-04T12:46:53.383Z,102100.53
2024-02-04T12:49:22.176Z,102091.38
2024-02-04T12:51:49.291Z,102083.88
2024-02-04T12:54:16.327Z,102088.25
2024-02-04T12:56:55.680Z,102082.66
2024-02-04T12:59:26.708Z,102070.97
2024-02-04T13:01:55.734Z,102059.31
2024-02-04T13:04:23.146Z,102060.56
2024-02-04T13:06:49.852Z,102051.19
2024-02-04T13:09:17.151Z,102051.56
2024-02-04T13:11:44.602Z,102058.22
2024-02-04T13:14:11.305Z,102065.50
2024-02-04T13:16:38.999Z,102070.09
2024-02-04T13:19:06.232Z,102076.78
2024-02-04T13:21:32.910Z,102069.09
2024-02-04T13:23:59.505Z,102063.47
2024-02-04T13:26:25.940Z,102057.03
2024-02-04T13:28:52.799Z,102050.81
2024-02-04T13:31:19.602Z,102052.28
2024-02-04T13:33:46.262Z,102042.94
2024-02-04T13:36:12.885Z,102030.22
2024-02-04T13:38:39.421Z,102052.91
2024-02-04T13:41:08.144Z,102051.25
2024-02-04T13:43:34.730Z,102051.44
2024-02-04T13:46:02.692Z,102048.13
2024-02-04T13:48:29.555Z,102044.94
2024-02-04T13:50:56.177Z,102035.16
2024-02-04T13:53:22.720Z,102023.91
2024-02-04T13:55:52.394Z,102018.28
2024-02-04T13:58:19.851Z,102015.81
2024-02-04T14:00:46.917Z,102008.50
2024-02-04T14:03:16.559Z,102020.22
2024-02-04T14:05:43.235Z,102032.25
2024-02-04T14:08:10.366Z,102026.84
2024-02-04T14:10:37.457Z,102029.75
2024-02-04T14:13:07.830Z,102025.56
2024-02-04T14:15:36.440Z,102020.34
2024-02-04T14:18:03.050Z,102021.41
2024-02-04T14:20:29.636Z,102023.47
2024-02-04T14:22:57.635Z,102016.41
2024-02-04T14:25:26.718Z,102016.41
2024-02-04T14:27:55.937Z,101999.31
2024-02-04T14:30:22.532Z,102004.53
2024-02-04T14:32:49.080Z,102000.16
2024-02-04T14:35:15.819Z,101996.41
2024-02-04T14:37:43.608Z,102002.66
2024-02-04T14:40:11.653Z,101987.88
2024-02-04T14:42:42.368Z,101999.53
2024-02-04T14:45:09.983Z,102006.63
2024-02-04T14:47:36.462Z,102008.50
2024-02-04T14:50:03.701Z,102006.41
2024-02-04T14:52:30.211Z,101995.84
2024-02-04T14:54:56.763Z,101996.28
2024-02-04T14:57:23.306Z,101994.19
2024-02-04T14:59:50.246Z,101986.50
2024-02-04T15:02:16.863Z,101990.47
2024-02-04T15:04:43.477Z,101998.38
2024-02-04T15:07:10.122Z,102007.34
2024-02-04T15:09:36.854Z,102012.75
2024-02-04T15:12:03.789Z,101994.84
2024-02-04T15:14:30.610Z,102000.91
2024-02-04T15:16:58.814Z,101999.88
2024-02-04T15:19:28.813Z,101980.06
2024-02-04T15:21:55.697Z,101964.66
2024-02-04T15:24:22.571Z,101989.88
2024-02-04T15:26:50.129Z,101974.47
2024-02-04T15:29:18.037Z,101971.94
2024-02-04T15:31:47.690Z,101979.03
2024-02-04T15:34:14.708Z,101971.94
2024-02-04T15:36:41.400Z,101969.41
2024-02-04T15:39:11.333Z,101966.72
2024-02-04T15:41:38.577Z,101949.47
2024-02-04T15:44:05.542Z,101947.13
2024-02-04T15:46:33.031Z,101944.03
2024-02-04T15:49:00.037Z,101951.50
2024-02-04T15:51:27.104Z,101950.88
2024-02-04T15:53:53.806Z,101943.59
2024-02-04T15:56:25.026Z,101942.75
2024-02-04T15:58:59.628Z,101948.16
2024-02-04T16:01:27.429Z,101944.84
2024-02-04T16:03:55.902Z,101943.16
2024-02-04T16:06:22.903Z,101948.78
2024-02-04T16:08:50.957Z,101945.66
2024-02-04T16:11:20.466Z,101950.44
2024-02-04T16:13:47.914Z,101946.91
2024-02-04T16:16:18.557Z,101938.13
2024-02-04T16:18:45.415Z,101933.31
2024-02-04T16:21:11.967Z,101947.91
2024-02-04T16:23:38.540Z,101931.66
2024-02-04T16:26:05.714Z,101941.66
2024-02-04T16:28:32.475Z,101935.41
2024-02-04T16:30:58.929Z,101935.63
2024-02-04T16:33:25.490Z,101940.19
2024-02-04T16:35:52.156Z,101933.94
2024-02-04T16:38:18.600Z,101931.03
2024-02-04T16:40:45.057Z,101928.94
2024-02-04T16:43:11.608Z,101921.66
2024-02-04T16:45:38.184Z,101933.31
2024-02-04T16:48:05.091Z,101925.22
2024-02-04T16:50:31.640Z,101923.34
2024-02-04T16:52:58.150Z,101934.78
2024-02-04T16:55:24.693Z,101933.13
2024-02-04T16:57:51.307Z,101932.28
2024-02-04T17:00:18.281Z,101925.22
2024-02-04T17:02:44.971Z,101917.72
2024-02-04T17:05:14.813Z,101913.97
2024-02-04T17:07:42.416Z,101921.25
2024-02-04T17:10:10.106Z,101920.22
2024-02-04T17:12:40.571Z,101915.41
2024-02-04T17:15:07.996Z,101915.22
2024-02-04T17:17:37.259Z,101914.38
2024-02-04T17:20:13.205Z,101914.38
2024-02-04T17:22:41.206Z,101923.53
2024-02-04T17:25:10.247Z,101920.84
2024-02-04T17:27:42.282Z,101919.78
2024-02-04T17:30:15.407Z,101920.22
2024-02-04T17:32:44.075Z,101923.75
2024-02-04T17:35:11.186Z,101922.28
2024-02-04T17:37:40.390Z,101927.06
2024-02-04T17:40:08.365Z,101937.28
2024-02-04T17:42:35.256Z,101924.31
2024-02-04T17:45:06.974Z,101920.13
2024-02-04T17:47:33.440Z,101918.66
2024-02-04T17:50:00.219Z,101928.84
2024-02-04T17:52:27.148Z,101924.47
2024-02-04T17:54:56.888Z,101919.28
2024-02-04T17:57:23.522Z,101919.28
2024-02-04T17:59:50.010Z,101904.69
2024-02-04T18:02:18.413Z,101900.13
2024-02-04T18:04:48.949Z,101892.84
2024-02-04T18:07:16.902Z,101895.34
2024-02-04T18:09:44.313Z,101886.38
2024-02-04T18:12:10.795Z,101891.81
2024-02-04T18:14:40.915Z,101890.97
2024-02-04T18:17:07.500Z,101889.72
2024-02-04T18:19:34.503Z,101898.88
2024-02-04T18:22:01.385Z,101891.38
2024-02-04T18:24:27.930Z,101900.34
2024-02-04T18:26:54.507Z,101889.34
2024-02-04T18:29:21.061Z,101890.19
2024-02-04T18:31:48.476Z,101885.38
2024-02-04T18:34:15.074Z,101887.72
2024-02-04T18:36:41.789Z,101886.88
2024-02-04T18:39:11.171Z,101878.75
2024-02-04T18:41:40.738Z,101883.13
2024-02-04T18:44:07.967Z,101874.34
2024-02-04T18:46:37.135Z,101865.22
2024-02-04T18:49:03.894Z,101870.81
2024-02-04T18:51:30.506Z,101864.41
2024-02-04T18:53:56.962Z,101868.13
2024-02-04T18:56:23.457Z,101856.06
2024-02-04T18:58:52.277Z,101856.06
2024-02-04T19:01:21.122Z,101846.91
2024-02-04T19:03:49.562Z,101840.47
2024-02-04T19:06:27.456Z,101855.66
2024-02-04T19:08:54.107Z,101866.91
2024-02-04T19:11:20.649Z,101860.66
2024-02-04T19:13:47.454Z,101865.03
2024-02-04T19:16:24.500Z,101863.16
2024-02-04T19:18:51.726Z,101858.56
2024-02-04T19:21:18.967Z,101867.72
2024-02-04T19:23:45.673Z,101856.06
2024-02-04T19:26:14.260Z,101857.94
2024-02-04T19:28:40.916Z,101862.13
2024-02-04T19:31:10.058Z,101864.81
2024-02-04T19:33:36.801Z,101868.16
2024-02-04T19:36:03.458Z,101869.00
2024-02-04T19:38:30.197Z,101865.66
2024-02-04T19:40:58.048Z,101862.94
2024-02-04T19:43:30.299Z,101873.97
2024-02-04T19:45:58.183Z,101874.59
2024-02-04T19:48:25.204Z,101870.84
2024-02-04T19:50:51.845Z,101876.47
2024-02-04T19:53:18.558Z,101873.97
2024-02-04T19:55:45.086Z,101871.06
2024-02-04T19:58:11.607Z,101874.41
2024-02-04T20:00:38.106Z,101874.41
2024-02-04T20:03:06.808Z,101870.22
2024-02-04T20:05:33.651Z,101854.41
2024-02-04T20:08:00.158Z,101864.41
2024-02-04T20:10:26.794Z,101862.53
2024-02-04T20:12:53.323Z,101871.47
2024-02-04T20:15:25.430Z,101854.63
2024-02-04T20:17:53.078Z,101868.56
2024-02-04T20:20:20.804Z,101866.91
2024-02-04T20:22:47.818Z,101860.66
2024-02-04T20:25:15.101Z,101861.88
2024-02-04T20:27:41.752Z,101856.88
2024-02-04T20:30:09.058Z,101853.50
2024-02-04T20:32:35.573Z,101860.59
2024-02-04T20:35:02.825Z,101855.16
2024-02-04T20:37:30.951Z,101855.59
2024-02-04T20:39:57.564Z,101853.09
2024-02-04T20:42:24.127Z,101865.56
2024-02-04T20:44:50.597Z,101868.47
2024-02-04T20:47:18.086Z,101870.16
2024-02-04T20:49:44.718Z,101862.03
2024-02-04T20:52:12.838Z,101870.97
2024-02-04T20:54:39.433Z,101868.28
2024-02-04T20:57:06.006Z,101870.16
2024-02-04T20:59:32.646Z,101856.81
2024-02-04T21:01:59.302Z,101848.91
2024-02-04T21:04:26.016Z,101848.09
2024-02-04T21:06:52.878Z,101866.81
2024-02-04T21:09:19.458Z,101870.78
2024-02-04T21:11:45.987Z,101861.41
2024-02-04T21:14:12.608Z,101864.75
2024-02-04T21:16:39.057Z,101870.56
2024-02-04T21:19:07.481Z,101868.06
2024-02-04T21:21:34.022Z,101877.22
2024-02-04T21:24:02.176Z,101877.63
2024-02-04T21:26:28.686Z,101873.91
2024-02-04T21:28:58.454Z,101863.91
2024-02-04T21:31:24.981Z,101875.56
2024-02-04T21:33:51.585Z,101878.28
2024-02-04T21:36:18.158Z,101866.81
2024-02-04T21:38:45.151Z,101875.56
2024-02-04T21:41:19.589Z,101875.78
2024-02-04T21:43:46.124Z,101871.81
2024-02-04T21:46:13.223Z,101868.06
2024-02-04T21:48:39.997Z,101858.09
2024-02-04T21:51:06.567Z,101879.53
2024-02-04T21:53:33.037Z,101867.88
2024-02-04T21:55:59.599Z,101874.13
2024-02-04T21:58:26.514Z,101875.59
2024-02-04T22:00:53.226Z,101865.63
2024-02-04T22:03:19.846Z,101865.22
2024-02-04T22:05:46.363Z,101868.56
2024-02-04T22:08:12.922Z,101863.16
2024-02-04T22:10:40.736Z,101878.16
2024-02-04T22:13:07.289Z,101869.59
2024-02-04T22:15:34.558Z,101869.41
2024-02-04T22:18:01.876Z,101873.56
2024-02-04T22:20:28.691Z,101868.59
2024-02-04T22:22:55.218Z,101874.66
2024-02-04T22:25:27.892Z,101867.78
2024-02-04T22:27:55.593Z,101876.53
2024-02-04T22:30:24.461Z,101880.69
2024-02-04T22:32:51.214Z,101872.78
2024-02-04T22:35:17.953Z,101874.44
2024-02-04T22:37:44.515Z,101879.44
2024-02-04T22:40:13.633Z,101882.16
2024-02-04T22:42:40.825Z,101874.03
2024-02-04T22:45:08.431Z,101868.59
2024-02-04T22:47:35.726Z,101882.16
2024-02-04T22:50:02.333Z,101881.31
2024-02-04T22:52:30.363Z,101879.06
2024-02-04T22:54:56.927Z,101869.88
2024-02-04T22:57:23.403Z,101879.06
2024-02-04T22:59:49.926Z,101866.97
2024-02-04T23:02:16.404Z,101881.97
2024-02-04T23:04:43.010Z,101874.88
2024-02-04T23:07:09.742Z,101882.38
2024-02-04T23:09:36.484Z,101889.88
2024-02-04T23:12:03.046Z,101888.41
2024-02-04T23:14:29.520Z,101881.53
2024-02-04T23:16:57.795Z,101892.75
2024-02-04T23:19:24.466Z,101892.97
2024-02-04T23:21:51.254Z,101909.63
2024-02-04T23:24:17.792Z,101903.38
2024-02-04T23:26:44.284Z,101906.94
2024-02-04T23:29:11.654Z,101903.81
2024-02-04T23:31:38.148Z,101901.09
2024-02-04T23:34:04.727Z,101907.75
2024-02-04T23:36:31.402Z,101905.25
2024-02-04T23:38:57.958Z,101904.44
2024-02-04T23:41:25.606Z,101906.50
2024-02-04T23:43:52.150Z,101910.22
2024-02-04T23:46:18.809Z,101910.63
2024-02-04T23:48:45.815Z,101932.09
2024-02-04T23:51:13.398Z,101921.47
2024-02-04T23:53:39.938Z,101918.75
2024-02-04T23:56:07.208Z,101913.53
2024-02-04T23:58:33.813Z,101927.28
